sensor_id;sensor_type;location;lat;lon;timestamp;temperature;humidity
32201;DHT22;18701;45.588;5.288;2023-03-01T00:01:58;1.70;99.90
32201;DHT22;18701;45.588;5.288;2023-03-01T00:04:24;1.60;99.90
32201;DHT22;18701;45.588;5.288;2023-03-01T00:06:49;1.60;99.90
32201;DHT22;18701;45.588;5.288;2023-03-01T00:09:15;1.50;99.90
32201;DHT22;18701;45.588;5.288;2023-03-01T00:11:41;1.60;99.90
32201;DHT22;18701;45.588;5.288;2023-03-01T00:14:07;1.40;99.90
32201;DHT22;18701;45.588;5.288;2023-03-01T00:16:38;1.50;99.90
32201;DHT22;18701;45.588;5.288;2023-03-01T00:19:05;1.70;99.90
32201;DHT22;18701;45.588;5.288;2023-03-01T00:21:32;1.70;99.90
32201;DHT22;18701;45.588;5.288;2023-03-01T00:23:59;1.90;99.90
32201;DHT22;18701;45.588;5.288;2023-03-01T00:26:25;1.70;99.90
32201;DHT22;18701;45.588;5.288;2023-03-01T00:28:52;1.50;99.90
32201;DHT22;18701;45.588;5.288;2023-03-01T00:31:20;1.40;99.90
32201;DHT22;18701;45.588;5.288;2023-03-01T00:33:46;1.50;99.90
32201;DHT22;18701;45.588;5.288;2023-03-01T00:36:14;1.40;99.90
32201;DHT22;18701;45.588;5.288;2023-03-01T00:38:42;1.60;99.90
32201;DHT22;18701;45.588;5.288;2023-03-01T00:41:11;1.70;99.90
32201;DHT22;18701;45.588;5.288;2023-03-01T00:43:38;1.40;99.90
32201;DHT22;18701;45.588;5.288;2023-03-01T00:46:05;1.40;99.90
32201;DHT22;18701;45.588;5.288;2023-03-01T00:48:31;1.30;99.90
32201;DHT22;18701;45.588;5.288;2023-03-01T00:51:03;1.60;99.90
32201;DHT22;18701;45.588;5.288;2023-03-01T00:53:29;1.60;99.90
32201;DHT22;18701;45.588;5.288;2023-03-01T00:55:57;1.60;99.90
32201;DHT22;18701;45.588;5.288;2023-03-01T00:58:22;1.60;99.90
32201;DHT22;18701;45.588;5.288;2023-03-01T01:00:48;1.50;99.90
32201;DHT22;18701;45.588;5.288;2023-03-01T01:03:13;1.40;99.90
32201;DHT22;18701;45.588;5.288;2023-03-01T01:05:39;1.20;99.90
32201;DHT22;18701;45.588;5.288;2023-03-01T01:08:05;1.40;99.90
32201;DHT22;18701;45.588;5.288;2023-03-01T01:10:33;1.20;99.90
32201;DHT22;18701;45.588;5.288;2023-03-01T01:12:58;1.30;99.90
32201;DHT22;18701;45.588;5.288;2023-03-01T01:15:24;1.30;99.90
32201;DHT22;18701;45.588;5.288;2023-03-01T01:17:49;1.20;99.90
32201;DHT22;18701;45.588;5.288;2023-03-01T01:20:15;1.10;99.90
32201;DHT22;18701;45.588;5.288;2023-03-01T01:22:41;1.30;99.90
32201;DHT22;18701;45.588;5.288;2023-03-01T01:25:07;1.20;99.90
32201;DHT22;18701;45.588;5.288;2023-03-01T01:27:32;1.30;99.90
32201;DHT22;18701;45.588;5.288;2023-03-01T01:29:58;0.90;99.90
32201;DHT22;18701;45.588;5.288;2023-03-01T01:32:24;1.10;99.90
32201;DHT22;18701;45.588;5.288;2023-03-01T01:34:49;1.10;99.90
32201;DHT22;18701;45.588;5.288;2023-03-01T01:37:15;1.00;99.90
32201;DHT22;18701;45.588;5.288;2023-03-01T01:39:41;1.00;99.90
32201;DHT22;18701;45.588;5.288;2023-03-01T01:42:14;1.10;99.90
32201;DHT22;18701;45.588;5.288;2023-03-01T01:44:42;1.00;99.90
32201;DHT22;18701;45.588;5.288;2023-03-01T01:47:14;1.10;99.90
32201;DHT22;18701;45.588;5.288;2023-03-01T01:49:51;1.20;99.90
32201;DHT22;18701;45.588;5.288;2023-03-01T01:52:33;1.10;99.90
32201;DHT22;18701;45.588;5.288;2023-03-01T01:55:03;1.00;99.90
32201;DHT22;18701;45.588;5.288;2023-03-01T01:57:40;1.10;99.90
32201;DHT22;18701;45.588;5.288;2023-03-01T02:00:16;1.20;99.90
32201;DHT22;18701;45.588;5.288;2023-03-01T02:02:43;1.00;99.90
32201;DHT22;18701;45.588;5.288;2023-03-01T02:05:18;1.00;99.90
32201;DHT22;18701;45.588;5.288;2023-03-01T02:07:45;1.00;99.90
32201;DHT22;18701;45.588;5.288;2023-03-01T02:10:11;0.80;99.90
32201;DHT22;18701;45.588;5.288;2023-03-01T02:12:38;0.70;99.90
32201;DHT22;18701;45.588;5.288;2023-03-01T02:15:05;0.90;99.90
32201;DHT22;18701;45.588;5.288;2023-03-01T02:17:31;1.20;99.90
32201;DHT22;18701;45.588;5.288;2023-03-01T02:22:34;1.00;99.90
32201;DHT22;18701;45.588;5.288;2023-03-01T02:25:04;1.20;99.90
32201;DHT22;18701;45.588;5.288;2023-03-01T02:30:50;1.30;99.90
32201;DHT22;18701;45.588;5.288;2023-03-01T02:33:35;0.90;99.90
32201;DHT22;18701;45.588;5.288;2023-03-01T02:36:07;1.10;99.90
32201;DHT22;18701;45.588;5.288;2023-03-01T02:38:33;0.80;99.90
32201;DHT22;18701;45.588;5.288;2023-03-01T02:41:00;0.70;99.90
32201;DHT22;18701;45.588;5.288;2023-03-01T02:43:30;0.60;99.90
32201;DHT22;18701;45.588;5.288;2023-03-01T02:45:58;0.60;99.90
32201;DHT22;18701;45.588;5.288;2023-03-01T02:48:25;0.90;99.90
32201;DHT22;18701;45.588;5.288;2023-03-01T02:51:11;0.90;99.90
32201;DHT22;18701;45.588;5.288;2023-03-01T02:54:05;0.90;99.90
32201;DHT22;18701;45.588;5.288;2023-03-01T02:56:33;0.80;99.90
32201;DHT22;18701;45.588;5.288;2023-03-01T02:59:00;0.60;99.90
32201;DHT22;18701;45.588;5.288;2023-03-01T03:01:26;1.00;99.90
32201;DHT22;18701;45.588;5.288;2023-03-01T03:04:09;0.90;99.90
32201;DHT22;18701;45.588;5.288;2023-03-01T03:06:35;0.80;99.90
32201;DHT22;18701;45.588;5.288;2023-03-01T03:09:01;0.70;99.90
32201;DHT22;18701;45.588;5.288;2023-03-01T03:11:27;1.00;99.90
32201;DHT22;18701;45.588;5.288;2023-03-01T03:13:53;0.80;99.90
32201;DHT22;18701;45.588;5.288;2023-03-01T03:16:19;0.70;99.90
32201;DHT22;18701;45.588;5.288;2023-03-01T03:18:45;0.80;99.90
32201;DHT22;18701;45.588;5.288;2023-03-01T03:21:12;0.80;99.90
32201;DHT22;18701;45.588;5.288;2023-03-01T03:23:39;0.80;99.90
32201;DHT22;18701;45.588;5.288;2023-03-01T03:26:05;0.70;99.90
32201;DHT22;18701;45.588;5.288;2023-03-01T03:28:32;0.60;99.90
32201;DHT22;18701;45.588;5.288;2023-03-01T03:30:58;0.60;99.90
32201;DHT22;18701;45.588;5.288;2023-03-01T03:33:32;0.70;99.90
32201;DHT22;18701;45.588;5.288;2023-03-01T03:35:58;0.80;99.90
32201;DHT22;18701;45.588;5.288;2023-03-01T03:38:24;0.70;99.90
32201;DHT22;18701;45.588;5.288;2023-03-01T03:41:06;0.80;99.90
32201;DHT22;18701;45.588;5.288;2023-03-01T03:43:34;0.60;99.90
32201;DHT22;18701;45.588;5.288;2023-03-01T03:46:00;0.60;99.90
32201;DHT22;18701;45.588;5.288;2023-03-01T03:48:26;0.80;99.90
32201;DHT22;18701;45.588;5.288;2023-03-01T03:50:54;0.70;99.90
32201;DHT22;18701;45.588;5.288;2023-03-01T03:53:23;0.70;99.90
32201;DHT22;18701;45.588;5.288;2023-03-01T03:55:49;0.60;99.90
32201;DHT22;18701;45.588;5.288;2023-03-01T03:58:15;0.40;99.90
32201;DHT22;18701;45.588;5.288;2023-03-01T04:00:45;0.60;99.90
32201;DHT22;18701;45.588;5.288;2023-03-01T04:03:12;0.60;99.90
32201;DHT22;18701;45.588;5.288;2023-03-01T04:05:39;0.60;99.90
32201;DHT22;18701;45.588;5.288;2023-03-01T04:08:05;0.90;99.90
32201;DHT22;18701;45.588;5.288;2023-03-01T04:10:45;0.90;99.90
32201;DHT22;18701;45.588;5.288;2023-03-01T04:13:15;0.90;99.90
32201;DHT22;18701;45.588;5.288;2023-03-01T04:15:41;0.80;99.90
32201;DHT22;18701;45.588;5.288;2023-03-01T04:18:09;0.70;99.90
32201;DHT22;18701;45.588;5.288;2023-03-01T04:20:37;0.70;99.90
32201;DHT22;18701;45.588;5.288;2023-03-01T04:23:04;0.50;99.90
32201;DHT22;18701;45.588;5.288;2023-03-01T04:25:50;0.70;99.90
32201;DHT22;18701;45.588;5.288;2023-03-01T04:31:07;0.70;99.90
32201;DHT22;18701;45.588;5.288;2023-03-01T04:34:04;0.60;99.90
32201;DHT22;18701;45.588;5.288;2023-03-01T04:36:30;0.70;99.90
32201;DHT22;18701;45.588;5.288;2023-03-01T04:38:56;0.80;99.90
32201;DHT22;18701;45.588;5.288;2023-03-01T04:41:23;0.80;99.90
32201;DHT22;18701;45.588;5.288;2023-03-01T04:43:49;0.70;99.90
32201;DHT22;18701;45.588;5.288;2023-03-01T04:46:17;0.40;99.90
32201;DHT22;18701;45.588;5.288;2023-03-01T04:48:44;0.40;99.90
32201;DHT22;18701;45.588;5.288;2023-03-01T04:51:10;0.40;99.90
32201;DHT22;18701;45.588;5.288;2023-03-01T04:53:39;0.40;99.90
32201;DHT22;18701;45.588;5.288;2023-03-01T04:56:05;0.50;99.90
32201;DHT22;18701;45.588;5.288;2023-03-01T04:58:32;0.60;99.90
32201;DHT22;18701;45.588;5.288;2023-03-01T05:00:58;0.60;99.90
32201;DHT22;18701;45.588;5.288;2023-03-01T05:03:24;0.60;99.90
32201;DHT22;18701;45.588;5.288;2023-03-01T05:05:51;0.40;99.90
32201;DHT22;18701;45.588;5.288;2023-03-01T05:08:17;0.20;99.90
32201;DHT22;18701;45.588;5.288;2023-03-01T05:10:51;0.20;99.90
32201;DHT22;18701;45.588;5.288;2023-03-01T05:13:18;0.30;99.90
32201;DHT22;18701;45.588;5.288;2023-03-01T05:16:01;0.50;99.90
32201;DHT22;18701;45.588;5.288;2023-03-01T05:18:29;0.70;99.90
32201;DHT22;18701;45.588;5.288;2023-03-01T05:21:01;0.60;99.90
32201;DHT22;18701;45.588;5.288;2023-03-01T05:23:29;0.60;99.90
32201;DHT22;18701;45.588;5.288;2023-03-01T05:25:58;0.40;99.90
32201;DHT22;18701;45.588;5.288;2023-03-01T05:28:25;0.40;99.90
32201;DHT22;18701;45.588;5.288;2023-03-01T05:30:51;0.40;99.90
32201;DHT22;18701;45.588;5.288;2023-03-01T05:33:17;0.60;99.90
32201;DHT22;18701;45.588;5.288;2023-03-01T05:35:44;0.70;99.90
32201;DHT22;18701;45.588;5.288;2023-03-01T05:38:14;0.60;99.90
32201;DHT22;18701;45.588;5.288;2023-03-01T05:40:42;0.70;99.90
32201;DHT22;18701;45.588;5.288;2023-03-01T05:43:09;0.60;99.90
32201;DHT22;18701;45.588;5.288;2023-03-01T05:45:37;0.60;99.90
32201;DHT22;18701;45.588;5.288;2023-03-01T05:48:04;0.50;99.90
32201;DHT22;18701;45.588;5.288;2023-03-01T05:50:34;0.70;99.90
32201;DHT22;18701;45.588;5.288;2023-03-01T05:53:02;0.70;99.90
32201;DHT22;18701;45.588;5.288;2023-03-01T05:55:30;0.40;99.90
32201;DHT22;18701;45.588;5.288;2023-03-01T05:57:59;0.10;99.90
32201;DHT22;18701;45.588;5.288;2023-03-01T06:00:25;0.20;99.90
32201;DHT22;18701;45.588;5.288;2023-03-01T06:02:51;0.30;99.90
32201;DHT22;18701;45.588;5.288;2023-03-01T06:05:19;0.40;99.90
32201;DHT22;18701;45.588;5.288;2023-03-01T06:07:45;0.30;99.90
32201;DHT22;18701;45.588;5.288;2023-03-01T06:10:11;0.40;99.90
32201;DHT22;18701;45.588;5.288;2023-03-01T06:12:38;0.20;99.90
32201;DHT22;18701;45.588;5.288;2023-03-01T06:15:06;0.10;99.90
32201;DHT22;18701;45.588;5.288;2023-03-01T06:17:33;-0.10;99.90
32201;DHT22;18701;45.588;5.288;2023-03-01T06:20:08;0.00;99.90
32201;DHT22;18701;45.588;5.288;2023-03-01T06:22:34;0.20;99.90
32201;DHT22;18701;45.588;5.288;2023-03-01T06:24:59;0.10;99.90
32201;DHT22;18701;45.588;5.288;2023-03-01T06:27:25;0.20;99.90
32201;DHT22;18701;45.588;5.288;2023-03-01T06:29:51;0.30;99.90
32201;DHT22;18701;45.588;5.288;2023-03-01T06:32:16;0.20;99.90
32201;DHT22;18701;45.588;5.288;2023-03-01T06:34:42;0.20;99.90
32201;DHT22;18701;45.588;5.288;2023-03-01T06:37:08;0.20;99.90
32201;DHT22;18701;45.588;5.288;2023-03-01T06:39:34;0.20;99.90
32201;DHT22;18701;45.588;5.288;2023-03-01T06:41:59;0.40;99.90
32201;DHT22;18701;45.588;5.288;2023-03-01T06:44:26;0.60;99.90
32201;DHT22;18701;45.588;5.288;2023-03-01T06:46:52;0.40;99.90
32201;DHT22;18701;45.588;5.288;2023-03-01T06:49:17;0.50;99.90
32201;DHT22;18701;45.588;5.288;2023-03-01T06:51:44;0.30;99.90
32201;DHT22;18701;45.588;5.288;2023-03-01T06:54:10;0.30;99.90
32201;DHT22;18701;45.588;5.288;2023-03-01T06:56:35;0.20;99.90
32201;DHT22;18701;45.588;5.288;2023-03-01T06:59:01;0.30;99.90
32201;DHT22;18701;45.588;5.288;2023-03-01T07:01:28;0.20;99.90
32201;DHT22;18701;45.588;5.288;2023-03-01T07:03:54;0.00;99.90
32201;DHT22;18701;45.588;5.288;2023-03-01T07:06:20;0.30;99.90
32201;DHT22;18701;45.588;5.288;2023-03-01T07:08:46;0.40;99.90
32201;DHT22;18701;45.588;5.288;2023-03-01T07:11:12;0.40;99.90
32201;DHT22;18701;45.588;5.288;2023-03-01T07:13:38;0.30;99.90
32201;DHT22;18701;45.588;5.288;2023-03-01T07:16:04;0.00;99.90
32201;DHT22;18701;45.588;5.288;2023-03-01T07:18:29;-0.10;99.90
32201;DHT22;18701;45.588;5.288;2023-03-01T07:20:55;-0.10;99.90
32201;DHT22;18701;45.588;5.288;2023-03-01T07:23:20;0.00;99.90
32201;DHT22;18701;45.588;5.288;2023-03-01T07:25:54;-0.10;99.90
32201;DHT22;18701;45.588;5.288;2023-03-01T07:28:20;-0.10;99.90
32201;DHT22;18701;45.588;5.288;2023-03-01T07:30:46;0.00;99.90
32201;DHT22;18701;45.588;5.288;2023-03-01T07:33:11;-0.10;99.90
32201;DHT22;18701;45.588;5.288;2023-03-01T07:35:37;-0.10;99.90
32201;DHT22;18701;45.588;5.288;2023-03-01T07:38:02;0.00;99.90
32201;DHT22;18701;45.588;5.288;2023-03-01T07:40:28;0.10;99.90
32201;DHT22;18701;45.588;5.288;2023-03-01T07:42:57;-0.20;99.90
32201;DHT22;18701;45.588;5.288;2023-03-01T07:45:27;0.10;99.90
32201;DHT22;18701;45.588;5.288;2023-03-01T07:47:53;-0.10;99.90
32201;DHT22;18701;45.588;5.288;2023-03-01T07:50:19;0.00;99.90
32201;DHT22;18701;45.588;5.288;2023-03-01T07:52:46;-0.20;99.90
32201;DHT22;18701;45.588;5.288;2023-03-01T07:55:12;0.00;99.90
32201;DHT22;18701;45.588;5.288;2023-03-01T07:57:38;0.00;99.90
32201;DHT22;18701;45.588;5.288;2023-03-01T08:00:04;-0.10;99.90
32201;DHT22;18701;45.588;5.288;2023-03-01T08:02:31;-0.20;99.90
32201;DHT22;18701;45.588;5.288;2023-03-01T08:04:56;-0.20;99.90
32201;DHT22;18701;45.588;5.288;2023-03-01T08:07:22;0.10;99.90
32201;DHT22;18701;45.588;5.288;2023-03-01T08:09:47;0.20;99.90
32201;DHT22;18701;45.588;5.288;2023-03-01T08:12:13;0.00;99.90
32201;DHT22;18701;45.588;5.288;2023-03-01T08:14:39;0.00;99.90
32201;DHT22;18701;45.588;5.288;2023-03-01T08:17:04;-0.10;99.90
32201;DHT22;18701;45.588;5.288;2023-03-01T08:19:30;-0.20;99.90
32201;DHT22;18701;45.588;5.288;2023-03-01T08:21:56;0.20;99.90
32201;DHT22;18701;45.588;5.288;2023-03-01T08:24:23;0.00;99.90
32201;DHT22;18701;45.588;5.288;2023-03-01T08:26:49;-0.20;99.90
32201;DHT22;18701;45.588;5.288;2023-03-01T08:29:15;-0.20;99.90
32201;DHT22;18701;45.588;5.288;2023-03-01T08:31:40;0.00;99.90
32201;DHT22;18701;45.588;5.288;2023-03-01T08:34:12;0.10;99.90
32201;DHT22;18701;45.588;5.288;2023-03-01T08:36:41;0.30;99.90
32201;DHT22;18701;45.588;5.288;2023-03-01T08:39:08;0.20;99.90
32201;DHT22;18701;45.588;5.288;2023-03-01T08:41:34;0.10;99.90
32201;DHT22;18701;45.588;5.288;2023-03-01T08:44:00;0.30;99.90
32201;DHT22;18701;45.588;5.288;2023-03-01T08:46:31;0.20;99.90
32201;DHT22;18701;45.588;5.288;2023-03-01T08:48:57;0.30;99.90
32201;DHT22;18701;45.588;5.288;2023-03-01T08:51:24;0.30;99.90
32201;DHT22;18701;45.588;5.288;2023-03-01T08:53:49;0.40;99.90
32201;DHT22;18701;45.588;5.288;2023-03-01T08:56:17;0.30;99.90
32201;DHT22;18701;45.588;5.288;2023-03-01T08:58:48;0.20;99.90
32201;DHT22;18701;45.588;5.288;2023-03-01T09:01:15;0.00;99.90
32201;DHT22;18701;45.588;5.288;2023-03-01T09:03:42;0.10;99.90
32201;DHT22;18701;45.588;5.288;2023-03-01T09:06:09;0.30;99.90
32201;DHT22;18701;45.588;5.288;2023-03-01T09:08:37;0.40;99.90
32201;DHT22;18701;45.588;5.288;2023-03-01T09:11:04;0.70;99.90
32201;DHT22;18701;45.588;5.288;2023-03-01T09:13:30;0.60;99.90
32201;DHT22;18701;45.588;5.288;2023-03-01T09:16:00;0.40;99.90
32201;DHT22;18701;45.588;5.288;2023-03-01T09:18:26;0.30;99.90
32201;DHT22;18701;45.588;5.288;2023-03-01T09:20:52;0.60;99.90
32201;DHT22;18701;45.588;5.288;2023-03-01T09:23:20;0.50;99.90
32201;DHT22;18701;45.588;5.288;2023-03-01T09:25:46;0.50;99.90
32201;DHT22;18701;45.588;5.288;2023-03-01T09:28:12;0.60;99.90
32201;DHT22;18701;45.588;5.288;2023-03-01T09:30:37;0.70;99.90
32201;DHT22;18701;45.588;5.288;2023-03-01T09:33:03;0.60;99.90
32201;DHT22;18701;45.588;5.288;2023-03-01T09:35:29;0.90;99.90
32201;DHT22;18701;45.588;5.288;2023-03-01T09:37:54;1.10;99.90
32201;DHT22;18701;45.588;5.288;2023-03-01T09:40:23;1.20;99.90
32201;DHT22;18701;45.588;5.288;2023-03-01T09:42:54;1.00;99.90
32201;DHT22;18701;45.588;5.288;2023-03-01T09:45:33;0.90;99.90
32201;DHT22;18701;45.588;5.288;2023-03-01T09:48:00;1.00;99.90
32201;DHT22;18701;45.588;5.288;2023-03-01T09:50:32;1.10;99.90
32201;DHT22;18701;45.588;5.288;2023-03-01T09:58:14;1.00;99.90
32201;DHT22;18701;45.588;5.288;2023-03-01T10:00:50;0.80;99.90
32201;DHT22;18701;45.588;5.288;2023-03-01T10:03:22;0.80;99.90
32201;DHT22;18701;45.588;5.288;2023-03-01T10:05:58;0.90;99.90
32201;DHT22;18701;45.588;5.288;2023-03-01T10:10:55;1.00;99.90
32201;DHT22;18701;45.588;5.288;2023-03-01T10:13:46;1.10;99.90
32201;DHT22;18701;45.588;5.288;2023-03-01T10:16:34;1.40;99.90
32201;DHT22;18701;45.588;5.288;2023-03-01T10:19:03;1.40;99.90
32201;DHT22;18701;45.588;5.288;2023-03-01T10:21:30;1.60;99.90
32201;DHT22;18701;45.588;5.288;2023-03-01T10:24:13;1.50;99.90
32201;DHT22;18701;45.588;5.288;2023-03-01T10:26:52;1.30;99.90
32201;DHT22;18701;45.588;5.288;2023-03-01T10:32:17;1.50;99.90
32201;DHT22;18701;45.588;5.288;2023-03-01T10:34:43;1.40;99.90
32201;DHT22;18701;45.588;5.288;2023-03-01T10:37:20;1.40;99.90
32201;DHT22;18701;45.588;5.288;2023-03-01T10:40:06;1.50;99.90
32201;DHT22;18701;45.588;5.288;2023-03-01T10:42:38;1.60;99.90
32201;DHT22;18701;45.588;5.288;2023-03-01T10:45:37;1.80;99.90
32201;DHT22;18701;45.588;5.288;2023-03-01T10:48:17;1.80;99.90
32201;DHT22;18701;45.588;5.288;2023-03-01T10:50:47;1.90;99.90
32201;DHT22;18701;45.588;5.288;2023-03-01T10:53:37;1.90;99.90
32201;DHT22;18701;45.588;5.288;2023-03-01T10:56:08;2.30;99.90
32201;DHT22;18701;45.588;5.288;2023-03-01T10:58:36;2.00;99.90
32201;DHT22;18701;45.588;5.288;2023-03-01T11:03:42;1.90;99.90
32201;DHT22;18701;45.588;5.288;2023-03-01T11:11:13;2.20;99.90
32201;DHT22;18701;45.588;5.288;2023-03-01T11:13:47;2.20;99.90
32201;DHT22;18701;45.588;5.288;2023-03-01T11:16:14;2.30;99.90
32201;DHT22;18701;45.588;5.288;2023-03-01T11:18:40;2.20;99.90
32201;DHT22;18701;45.588;5.288;2023-03-01T11:21:07;2.10;99.90
32201;DHT22;18701;45.588;5.288;2023-03-01T11:23:34;2.20;99.90
32201;DHT22;18701;45.588;5.288;2023-03-01T11:26:06;2.20;99.90
32201;DHT22;18701;45.588;5.288;2023-03-01T11:28:37;2.30;99.90
32201;DHT22;18701;45.588;5.288;2023-03-01T11:31:06;2.40;99.90
32201;DHT22;18701;45.588;5.288;2023-03-01T11:33:47;2.30;99.90
32201;DHT22;18701;45.588;5.288;2023-03-01T11:38:45;2.30;99.90
32201;DHT22;18701;45.588;5.288;2023-03-01T11:41:20;2.40;99.90
32201;DHT22;18701;45.588;5.288;2023-03-01T11:44:23;2.40;99.90
32201;DHT22;18701;45.588;5.288;2023-03-01T12:03:32;2.50;99.90
32201;DHT22;18701;45.588;5.288;2023-03-01T12:06:21;2.50;99.90
32201;DHT22;18701;45.588;5.288;2023-03-01T12:11:41;3.10;99.90
32201;DHT22;18701;45.588;5.288;2023-03-01T12:19:15;3.00;99.90
32201;DHT22;18701;45.588;5.288;2023-03-01T12:26:56;2.60;99.90
32201;DHT22;18701;45.588;5.288;2023-03-01T12:29:24;2.60;99.90
32201;DHT22;18701;45.588;5.288;2023-03-01T12:40:28;2.80;99.90
32201;DHT22;18701;45.588;5.288;2023-03-01T12:46:01;2.80;99.90
32201;DHT22;18701;45.588;5.288;2023-03-01T12:48:53;2.70;99.90
32201;DHT22;18701;45.588;5.288;2023-03-01T12:51:24;3.00;99.90
32201;DHT22;18701;45.588;5.288;2023-03-01T12:53:53;3.30;99.90
32201;DHT22;18701;45.588;5.288;2023-03-01T12:56:32;3.00;99.90
32201;DHT22;18701;45.588;5.288;2023-03-01T12:59:12;3.20;99.90
32201;DHT22;18701;45.588;5.288;2023-03-01T13:01:57;3.30;99.90
32201;DHT22;18701;45.588;5.288;2023-03-01T13:05:07;3.30;99.90
32201;DHT22;18701;45.588;5.288;2023-03-01T13:10:43;3.50;99.90
32201;DHT22;18701;45.588;5.288;2023-03-01T13:13:23;3.40;99.90
32201;DHT22;18701;45.588;5.288;2023-03-01T13:15:50;3.50;99.90
32201;DHT22;18701;45.588;5.288;2023-03-01T13:20:55;3.40;99.90
32201;DHT22;18701;45.588;5.288;2023-03-01T13:31:00;3.60;99.90
32201;DHT22;18701;45.588;5.288;2023-03-01T13:35:52;3.80;99.90
32201;DHT22;18701;45.588;5.288;2023-03-01T13:41:04;3.60;99.90
32201;DHT22;18701;45.588;5.288;2023-03-01T13:43:31;3.70;99.90
32201;DHT22;18701;45.588;5.288;2023-03-01T13:45:57;3.60;99.90
32201;DHT22;18701;45.588;5.288;2023-03-01T13:48:29;3.60;99.90
32201;DHT22;18701;45.588;5.288;2023-03-01T13:51:07;3.60;99.90
32201;DHT22;18701;45.588;5.288;2023-03-01T13:53:36;3.60;99.90
32201;DHT22;18701;45.588;5.288;2023-03-01T13:56:08;3.60;99.90
32201;DHT22;18701;45.588;5.288;2023-03-01T13:58:53;3.80;99.90
32201;DHT22;18701;45.588;5.288;2023-03-01T14:01:25;3.80;99.90
32201;DHT22;18701;45.588;5.288;2023-03-01T14:03:52;3.70;99.90
32201;DHT22;18701;45.588;5.288;2023-03-01T14:06:24;3.80;99.90
32201;DHT22;18701;45.588;5.288;2023-03-01T14:09:03;3.80;99.90
32201;DHT22;18701;45.588;5.288;2023-03-01T14:14:13;4.20;99.90
32201;DHT22;18701;45.588;5.288;2023-03-01T14:19:46;3.90;99.90
32201;DHT22;18701;45.588;5.288;2023-03-01T14:22:25;3.90;99.90
32201;DHT22;18701;45.588;5.288;2023-03-01T14:25:20;4.10;99.90
32201;DHT22;18701;45.588;5.288;2023-03-01T14:28:02;4.20;99.90
32201;DHT22;18701;45.588;5.288;2023-03-01T14:30:34;4.20;99.90
32201;DHT22;18701;45.588;5.288;2023-03-01T14:33:04;4.20;99.90
32201;DHT22;18701;45.588;5.288;2023-03-01T14:35:34;4.30;99.90
32201;DHT22;18701;45.588;5.288;2023-03-01T14:38:00;4.40;99.90
32201;DHT22;18701;45.588;5.288;2023-03-01T14:40:32;4.30;99.90
32201;DHT22;18701;45.588;5.288;2023-03-01T14:43:00;4.20;99.90
32201;DHT22;18701;45.588;5.288;2023-03-01T14:45:29;4.00;99.90
32201;DHT22;18701;45.588;5.288;2023-03-01T14:48:00;4.20;99.90
32201;DHT22;18701;45.588;5.288;2023-03-01T14:50:27;4.10;99.90
32201;DHT22;18701;45.588;5.288;2023-03-01T14:52:59;4.20;99.90
32201;DHT22;18701;45.588;5.288;2023-03-01T14:55:33;4.10;99.90
32201;DHT22;18701;45.588;5.288;2023-03-01T14:58:04;4.20;99.90
32201;DHT22;18701;45.588;5.288;2023-03-01T15:00:32;4.30;99.90
32201;DHT22;18701;45.588;5.288;2023-03-01T15:03:04;4.20;99.90
32201;DHT22;18701;45.588;5.288;2023-03-01T15:05:35;4.30;99.90
32201;DHT22;18701;45.588;5.288;2023-03-01T15:08:03;4.20;99.90
32201;DHT22;18701;45.588;5.288;2023-03-01T15:10:33;4.30;99.90
32201;DHT22;18701;45.588;5.288;2023-03-01T15:13:25;4.10;99.90
32201;DHT22;18701;45.588;5.288;2023-03-01T15:15:53;4.20;99.90
32201;DHT22;18701;45.588;5.288;2023-03-01T15:18:28;4.30;99.90
32201;DHT22;18701;45.588;5.288;2023-03-01T15:20:54;4.20;99.90
32201;DHT22;18701;45.588;5.288;2023-03-01T15:23:29;4.10;99.90
32201;DHT22;18701;45.588;5.288;2023-03-01T15:25:56;4.10;99.90
32201;DHT22;18701;45.588;5.288;2023-03-01T15:28:24;3.90;99.90
32201;DHT22;18701;45.588;5.288;2023-03-01T15:31:03;3.80;99.90
32201;DHT22;18701;45.588;5.288;2023-03-01T15:33:34;3.90;99.90
32201;DHT22;18701;45.588;5.288;2023-03-01T15:36:36;3.80;99.90
32201;DHT22;18701;45.588;5.288;2023-03-01T15:39:03;3.80;99.90
32201;DHT22;18701;45.588;5.288;2023-03-01T15:41:30;3.90;99.90
32201;DHT22;18701;45.588;5.288;2023-03-01T15:44:00;3.80;99.90
32201;DHT22;18701;45.588;5.288;2023-03-01T15:46:31;3.80;99.90
32201;DHT22;18701;45.588;5.288;2023-03-01T15:49:19;3.90;99.90
32201;DHT22;18701;45.588;5.288;2023-03-01T15:51:51;3.80;99.90
32201;DHT22;18701;45.588;5.288;2023-03-01T15:54:21;3.80;99.90
32201;DHT22;18701;45.588;5.288;2023-03-01T15:56:47;3.80;99.90
32201;DHT22;18701;45.588;5.288;2023-03-01T15:59:13;3.80;99.90
32201;DHT22;18701;45.588;5.288;2023-03-01T16:01:39;3.90;99.90
32201;DHT22;18701;45.588;5.288;2023-03-01T16:04:05;3.90;99.90
32201;DHT22;18701;45.588;5.288;2023-03-01T16:06:31;3.90;99.90
32201;DHT22;18701;45.588;5.288;2023-03-01T16:08:56;3.90;99.90
32201;DHT22;18701;45.588;5.288;2023-03-01T16:11:22;3.90;99.90
32201;DHT22;18701;45.588;5.288;2023-03-01T16:13:48;3.80;99.90
32201;DHT22;18701;45.588;5.288;2023-03-01T16:16:15;3.70;99.90
32201;DHT22;18701;45.588;5.288;2023-03-01T16:18:47;3.70;99.90
32201;DHT22;18701;45.588;5.288;2023-03-01T16:21:33;3.70;99.90
32201;DHT22;18701;45.588;5.288;2023-03-01T16:23:59;3.70;99.90
32201;DHT22;18701;45.588;5.288;2023-03-01T16:26:24;3.70;99.90
32201;DHT22;18701;45.588;5.288;2023-03-01T16:28:54;3.80;99.90
32201;DHT22;18701;45.588;5.288;2023-03-01T16:31:19;3.80;99.90
32201;DHT22;18701;45.588;5.288;2023-03-01T16:33:45;3.80;99.90
32201;DHT22;18701;45.588;5.288;2023-03-01T16:36:19;3.80;99.90
32201;DHT22;18701;45.588;5.288;2023-03-01T16:38:45;3.80;99.90
32201;DHT22;18701;45.588;5.288;2023-03-01T16:41:15;3.80;99.90
32201;DHT22;18701;45.588;5.288;2023-03-01T16:43:41;3.80;99.90
32201;DHT22;18701;45.588;5.288;2023-03-01T16:46:16;3.80;99.90
32201;DHT22;18701;45.588;5.288;2023-03-01T16:48:42;3.80;99.90
32201;DHT22;18701;45.588;5.288;2023-03-01T16:51:08;3.80;99.90
32201;DHT22;18701;45.588;5.288;2023-03-01T16:53:35;3.90;99.90
32201;DHT22;18701;45.588;5.288;2023-03-01T16:56:03;3.80;99.90
32201;DHT22;18701;45.588;5.288;2023-03-01T16:58:29;3.80;99.90
32201;DHT22;18701;45.588;5.288;2023-03-01T17:00:55;3.70;99.90
32201;DHT22;18701;45.588;5.288;2023-03-01T17:03:23;3.80;99.90
32201;DHT22;18701;45.588;5.288;2023-03-01T17:05:50;3.80;99.90
32201;DHT22;18701;45.588;5.288;2023-03-01T17:08:15;3.80;99.90
32201;DHT22;18701;45.588;5.288;2023-03-01T17:10:41;3.70;99.90
32201;DHT22;18701;45.588;5.288;2023-03-01T17:13:08;3.70;99.90
32201;DHT22;18701;45.588;5.288;2023-03-01T17:15:34;3.70;99.90
32201;DHT22;18701;45.588;5.288;2023-03-01T17:18:01;3.70;99.90
32201;DHT22;18701;45.588;5.288;2023-03-01T17:20:26;3.70;99.90
32201;DHT22;18701;45.588;5.288;2023-03-01T17:22:52;3.70;99.90
32201;DHT22;18701;45.588;5.288;2023-03-01T17:25:18;3.70;99.90
32201;DHT22;18701;45.588;5.288;2023-03-01T17:27:44;3.70;99.90
32201;DHT22;18701;45.588;5.288;2023-03-01T17:30:12;3.70;99.90
32201;DHT22;18701;45.588;5.288;2023-03-01T17:32:38;3.70;99.90
32201;DHT22;18701;45.588;5.288;2023-03-01T17:35:04;3.70;99.90